sensor_id;sensor_type;location;lat;lon;timestamp;temperature;humidity
62573;DHT22;48626;51.678;5.806;2023-04-10T00:02:05;10.00;99.90
62573;DHT22;48626;51.678;5.806;2023-04-10T00:04:31;10.00;99.90
62573;DHT22;48626;51.678;5.806;2023-04-10T00:06:57;10.00;99.90
62573;DHT22;48626;51.678;5.806;2023-04-10T00:09:22;10.00;99.90
62573;DHT22;48626;51.678;5.806;2023-04-10T00:11:48;10.00;99.90
62573;DHT22;48626;51.678;5.806;2023-04-10T00:14:14;10.00;99.90
62573;DHT22;48626;51.678;5.806;2023-04-10T00:16:39;10.00;99.90
62573;DHT22;48626;51.678;5.806;2023-04-10T00:19:05;9.90;99.90
62573;DHT22;48626;51.678;5.806;2023-04-10T00:21:32;9.90;99.90
62573;DHT22;48626;51.678;5.806;2023-04-10T00:23:58;9.90;99.90
62573;DHT22;48626;51.678;5.806;2023-04-10T00:26:23;9.90;99.90
62573;DHT22;48626;51.678;5.806;2023-04-10T00:28:51;9.80;99.90
62573;DHT22;48626;51.678;5.806;2023-04-10T00:31:16;9.80;99.90
62573;DHT22;48626;51.678;5.806;2023-04-10T00:33:42;9.80;99.90
62573;DHT22;48626;51.678;5.806;2023-04-10T00:36:08;9.80;99.90
62573;DHT22;48626;51.678;5.806;2023-04-10T00:38:33;9.70;99.90
62573;DHT22;48626;51.678;5.806;2023-04-10T00:40:59;9.70;99.90
62573;DHT22;48626;51.678;5.806;2023-04-10T00:43:25;9.70;99.90
62573;DHT22;48626;51.678;5.806;2023-04-10T00:45:51;9.60;99.90
62573;DHT22;48626;51.678;5.806;2023-04-10T00:48:17;9.60;99.90
62573;DHT22;48626;51.678;5.806;2023-04-10T00:50:43;9.60;99.90
62573;DHT22;48626;51.678;5.806;2023-04-10T00:53:10;9.60;99.90
62573;DHT22;48626;51.678;5.806;2023-04-10T00:55:36;9.50;99.90
62573;DHT22;48626;51.678;5.806;2023-04-10T00:58:01;9.50;99.90
62573;DHT22;48626;51.678;5.806;2023-04-10T01:00:27;9.50;99.90
62573;DHT22;48626;51.678;5.806;2023-04-10T01:02:53;9.40;99.90
62573;DHT22;48626;51.678;5.806;2023-04-10T01:05:19;9.40;99.90
62573;DHT22;48626;51.678;5.806;2023-04-10T01:08:02;9.40;99.90
62573;DHT22;48626;51.678;5.806;2023-04-10T01:10:47;9.30;99.90
62573;DHT22;48626;51.678;5.806;2023-04-10T01:13:27;9.30;99.90
62573;DHT22;48626;51.678;5.806;2023-04-10T01:16:19;9.30;99.90
62573;DHT22;48626;51.678;5.806;2023-04-10T01:18:52;9.20;99.90
62573;DHT22;48626;51.678;5.806;2023-04-10T01:21:20;9.20;99.90
62573;DHT22;48626;51.678;5.806;2023-04-10T01:24:36;9.20;99.90
62573;DHT22;48626;51.678;5.806;2023-04-10T01:29:55;9.10;99.90
62573;DHT22;48626;51.678;5.806;2023-04-10T01:32:23;9.10;99.90
62573;DHT22;48626;51.678;5.806;2023-04-10T01:34:51;9.10;99.90
62573;DHT22;48626;51.678;5.806;2023-04-10T01:37:27;9.00;99.90
62573;DHT22;48626;51.678;5.806;2023-04-10T01:40:00;9.00;99.90
62573;DHT22;48626;51.678;5.806;2023-04-10T01:42:27;9.00;99.90
62573;DHT22;48626;51.678;5.806;2023-04-10T01:44:56;9.00;99.90
62573;DHT22;48626;51.678;5.806;2023-04-10T01:47:23;8.90;99.90
62573;DHT22;48626;51.678;5.806;2023-04-10T01:49:50;9.00;99.90
62573;DHT22;48626;51.678;5.806;2023-04-10T01:52:17;8.90;99.90
62573;DHT22;48626;51.678;5.806;2023-04-10T01:54:43;8.90;99.90
62573;DHT22;48626;51.678;5.806;2023-04-10T01:57:12;8.90;99.90
62573;DHT22;48626;51.678;5.806;2023-04-10T01:59:39;8.90;99.90
62573;DHT22;48626;51.678;5.806;2023-04-10T02:02:05;8.90;99.90
62573;DHT22;48626;51.678;5.806;2023-04-10T02:04:32;8.90;99.90
62573;DHT22;48626;51.678;5.806;2023-04-10T02:12:33;8.80;99.90
62573;DHT22;48626;51.678;5.806;2023-04-10T02:15:01;8.80;99.90
62573;DHT22;48626;51.678;5.806;2023-04-10T02:17:30;8.70;99.90
62573;DHT22;48626;51.678;5.806;2023-04-10T02:19:59;8.70;99.90
62573;DHT22;48626;51.678;5.806;2023-04-10T02:22:25;8.70;99.90
62573;DHT22;48626;51.678;5.806;2023-04-10T02:24:52;8.60;99.90
62573;DHT22;48626;51.678;5.806;2023-04-10T02:27:33;8.70;99.90
62573;DHT22;48626;51.678;5.806;2023-04-10T02:29:59;8.60;99.90
62573;DHT22;48626;51.678;5.806;2023-04-10T02:32:25;8.60;99.90
62573;DHT22;48626;51.678;5.806;2023-04-10T02:34:51;8.60;99.90
62573;DHT22;48626;51.678;5.806;2023-04-10T02:37:17;8.50;99.90
62573;DHT22;48626;51.678;5.806;2023-04-10T02:39:42;8.60;99.90
62573;DHT22;48626;51.678;5.806;2023-04-10T02:42:08;8.50;99.90
62573;DHT22;48626;51.678;5.806;2023-04-10T02:44:34;8.50;99.90
62573;DHT22;48626;51.678;5.806;2023-04-10T02:47:00;8.50;99.90
62573;DHT22;48626;51.678;5.806;2023-04-10T02:49:25;8.60;99.90
62573;DHT22;48626;51.678;5.806;2023-04-10T02:51:51;8.50;99.90
62573;DHT22;48626;51.678;5.806;2023-04-10T02:54:17;8.50;99.90
62573;DHT22;48626;51.678;5.806;2023-04-10T02:56:42;8.60;99.90
62573;DHT22;48626;51.678;5.806;2023-04-10T02:59:08;8.60;99.90
62573;DHT22;48626;51.678;5.806;2023-04-10T03:01:34;8.50;99.90
62573;DHT22;48626;51.678;5.806;2023-04-10T03:04:00;8.50;99.90
62573;DHT22;48626;51.678;5.806;2023-04-10T03:06:28;8.50;99.90
62573;DHT22;48626;51.678;5.806;2023-04-10T03:08:53;8.50;99.90
62573;DHT22;48626;51.678;5.806;2023-04-10T03:11:19;8.50;99.90
62573;DHT22;48626;51.678;5.806;2023-04-10T03:13:45;8.50;99.90
62573;DHT22;48626;51.678;5.806;2023-04-10T03:16:11;8.50;99.90
62573;DHT22;48626;51.678;5.806;2023-04-10T03:18:37;8.40;99.90
62573;DHT22;48626;51.678;5.806;2023-04-10T03:21:03;8.40;99.90
62573;DHT22;48626;51.678;5.806;2023-04-10T03:23:28;8.40;99.90
62573;DHT22;48626;51.678;5.806;2023-04-10T03:25:54;8.40;99.90
62573;DHT22;48626;51.678;5.806;2023-04-10T03:28:20;8.40;99.90
62573;DHT22;48626;51.678;5.806;2023-04-10T03:30:47;8.40;99.90
62573;DHT22;48626;51.678;5.806;2023-04-10T03:33:13;8.30;99.90
62573;DHT22;48626;51.678;5.806;2023-04-10T03:35:38;8.30;99.90
62573;DHT22;48626;51.678;5.806;2023-04-10T03:38:04;8.20;99.90
62573;DHT22;48626;51.678;5.806;2023-04-10T03:40:30;8.20;99.90
62573;DHT22;48626;51.678;5.806;2023-04-10T03:42:56;8.20;99.90
62573;DHT22;48626;51.678;5.806;2023-04-10T03:45:21;8.20;99.90
62573;DHT22;48626;51.678;5.806;2023-04-10T03:47:47;8.10;99.90
62573;DHT22;48626;51.678;5.806;2023-04-10T03:50:12;8.10;99.90
62573;DHT22;48626;51.678;5.806;2023-04-10T03:52:39;8.10;99.90
62573;DHT22;48626;51.678;5.806;2023-04-10T03:55:05;8.00;99.90
62573;DHT22;48626;51.678;5.806;2023-04-10T03:57:31;8.00;99.90
62573;DHT22;48626;51.678;5.806;2023-04-10T03:59:56;8.00;99.90
62573;DHT22;48626;51.678;5.806;2023-04-10T04:02:22;8.00;99.90
62573;DHT22;48626;51.678;5.806;2023-04-10T04:04:48;7.90;99.90
62573;DHT22;48626;51.678;5.806;2023-04-10T04:07:13;7.90;99.90
62573;DHT22;48626;51.678;5.806;2023-04-10T04:09:39;7.90;99.90
62573;DHT22;48626;51.678;5.806;2023-04-10T04:12:06;7.90;99.90
62573;DHT22;48626;51.678;5.806;2023-04-10T04:14:32;7.80;99.90
62573;DHT22;48626;51.678;5.806;2023-04-10T04:16:58;7.80;99.90
62573;DHT22;48626;51.678;5.806;2023-04-10T04:19:23;7.80;99.90
62573;DHT22;48626;51.678;5.806;2023-04-10T04:21:49;7.80;99.90
62573;DHT22;48626;51.678;5.806;2023-04-10T04:24:15;7.80;99.90
62573;DHT22;48626;51.678;5.806;2023-04-10T04:26:41;7.80;99.90
62573;DHT22;48626;51.678;5.806;2023-04-10T04:29:06;7.70;99.90
62573;DHT22;48626;51.678;5.806;2023-04-10T04:31:32;7.70;99.90
62573;DHT22;48626;51.678;5.806;2023-04-10T04:33:58;7.80;99.90
62573;DHT22;48626;51.678;5.806;2023-04-10T04:36:24;7.70;99.90
62573;DHT22;48626;51.678;5.806;2023-04-10T04:38:50;7.70;99.90
62573;DHT22;48626;51.678;5.806;2023-04-10T04:41:16;7.70;99.90
62573;DHT22;48626;51.678;5.806;2023-04-10T04:43:42;7.70;99.90
62573;DHT22;48626;51.678;5.806;2023-04-10T04:46:07;7.70;99.90
62573;DHT22;48626;51.678;5.806;2023-04-10T04:48:34;7.70;99.90
62573;DHT22;48626;51.678;5.806;2023-04-10T04:51:00;7.70;99.90
62573;DHT22;48626;51.678;5.806;2023-04-10T04:53:26;7.70;99.90
62573;DHT22;48626;51.678;5.806;2023-04-10T04:55:51;7.70;99.90
62573;DHT22;48626;51.678;5.806;2023-04-10T04:58:17;7.70;99.90
62573;DHT22;48626;51.678;5.806;2023-04-10T05:00:43;7.70;99.90
62573;DHT22;48626;51.678;5.806;2023-04-10T05:03:08;7.70;99.90
62573;DHT22;48626;51.678;5.806;2023-04-10T05:05:34;7.60;99.90
62573;DHT22;48626;51.678;5.806;2023-04-10T05:08:00;7.70;99.90
62573;DHT22;48626;51.678;5.806;2023-04-10T05:10:26;7.70;99.90
62573;DHT22;48626;51.678;5.806;2023-04-10T05:12:51;7.70;99.90
62573;DHT22;48626;51.678;5.806;2023-04-10T05:15:17;7.70;99.90
62573;DHT22;48626;51.678;5.806;2023-04-10T05:17:42;7.70;99.90
62573;DHT22;48626;51.678;5.806;2023-04-10T05:20:08;7.70;99.90
62573;DHT22;48626;51.678;5.806;2023-04-10T05:22:35;7.70;99.90
62573;DHT22;48626;51.678;5.806;2023-04-10T05:25:00;7.70;99.90
62573;DHT22;48626;51.678;5.806;2023-04-10T05:27:27;7.70;99.90
62573;DHT22;48626;51.678;5.806;2023-04-10T05:29:52;7.80;99.90
62573;DHT22;48626;51.678;5.806;2023-04-10T05:32:18;7.80;99.90
62573;DHT22;48626;51.678;5.806;2023-04-10T05:34:44;7.80;99.90
62573;DHT22;48626;51.678;5.806;2023-04-10T05:37:09;7.90;99.90
62573;DHT22;48626;51.678;5.806;2023-04-10T05:39:37;7.90;99.90
62573;DHT22;48626;51.678;5.806;2023-04-10T05:42:03;7.90;99.90
62573;DHT22;48626;51.678;5.806;2023-04-10T05:44:29;8.00;99.90
62573;DHT22;48626;51.678;5.806;2023-04-10T05:46:54;8.00;99.90
62573;DHT22;48626;51.678;5.806;2023-04-10T05:49:20;8.10;99.90
62573;DHT22;48626;51.678;5.806;2023-04-10T05:51:46;8.10;99.90
62573;DHT22;48626;51.678;5.806;2023-04-10T05:54:15;8.20;99.90
62573;DHT22;48626;51.678;5.806;2023-04-10T05:56:41;8.30;99.90
62573;DHT22;48626;51.678;5.806;2023-04-10T05:59:06;8.30;99.90
62573;DHT22;48626;51.678;5.806;2023-04-10T06:01:32;8.40;99.90
62573;DHT22;48626;51.678;5.806;2023-04-10T06:03:58;8.50;99.90
62573;DHT22;48626;51.678;5.806;2023-04-10T06:06:24;8.50;99.90
62573;DHT22;48626;51.678;5.806;2023-04-10T06:08:51;8.70;99.90
62573;DHT22;48626;51.678;5.806;2023-04-10T06:11:17;8.70;99.90
62573;DHT22;48626;51.678;5.806;2023-04-10T06:13:42;8.80;99.90
62573;DHT22;48626;51.678;5.806;2023-04-10T06:16:08;9.00;99.90
62573;DHT22;48626;51.678;5.806;2023-04-10T06:18:34;9.10;99.90
62573;DHT22;48626;51.678;5.806;2023-04-10T06:21:00;9.10;99.90
62573;DHT22;48626;51.678;5.806;2023-04-10T06:23:29;9.30;99.90
62573;DHT22;48626;51.678;5.806;2023-04-10T06:25:55;9.30;99.90
62573;DHT22;48626;51.678;5.806;2023-04-10T06:28:20;9.40;99.90
62573;DHT22;48626;51.678;5.806;2023-04-10T06:30:46;9.40;99.90
62573;DHT22;48626;51.678;5.806;2023-04-10T06:33:12;9.50;99.90
62573;DHT22;48626;51.678;5.806;2023-04-10T06:35:37;9.50;99.90
62573;DHT22;48626;51.678;5.806;2023-04-10T06:38:04;9.50;99.90
62573;DHT22;48626;51.678;5.806;2023-04-10T06:40:29;9.60;99.90
62573;DHT22;48626;51.678;5.806;2023-04-10T06:42:56;9.60;99.90
62573;DHT22;48626;51.678;5.806;2023-04-10T06:45:21;9.70;99.90
62573;DHT22;48626;51.678;5.806;2023-04-10T06:47:47;9.80;99.90
62573;DHT22;48626;51.678;5.806;2023-04-10T06:50:13;9.90;99.90
62573;DHT22;48626;51.678;5.806;2023-04-10T06:52:38;10.00;99.90
62573;DHT22;48626;51.678;5.806;2023-04-10T06:55:04;10.20;99.90
62573;DHT22;48626;51.678;5.806;2023-04-10T06:57:30;10.20;99.90
62573;DHT22;48626;51.678;5.806;2023-04-10T06:59:56;10.30;99.90
62573;DHT22;48626;51.678;5.806;2023-04-10T07:02:22;10.40;99.90
62573;DHT22;48626;51.678;5.806;2023-04-10T07:04:47;10.50;99.90
62573;DHT22;48626;51.678;5.806;2023-04-10T07:07:14;10.60;99.90
62573;DHT22;48626;51.678;5.806;2023-04-10T07:09:40;10.60;99.90
62573;DHT22;48626;51.678;5.806;2023-04-10T07:12:06;10.60;99.90
62573;DHT22;48626;51.678;5.806;2023-04-10T07:14:33;10.70;99.90
62573;DHT22;48626;51.678;5.806;2023-04-10T07:17:01;10.80;99.90
62573;DHT22;48626;51.678;5.806;2023-04-10T07:19:27;10.90;99.90
62573;DHT22;48626;51.678;5.806;2023-04-10T07:21:53;10.90;99.90
62573;DHT22;48626;51.678;5.806;2023-04-10T07:24:19;11.00;99.90
62573;DHT22;48626;51.678;5.806;2023-04-10T07:26:45;11.10;99.90
62573;DHT22;48626;51.678;5.806;2023-04-10T07:29:11;11.10;99.90
62573;DHT22;48626;51.678;5.806;2023-04-10T07:31:37;11.20;99.90
62573;DHT22;48626;51.678;5.806;2023-04-10T07:34:03;11.30;99.90
62573;DHT22;48626;51.678;5.806;2023-04-10T07:36:29;11.30;99.90
62573;DHT22;48626;51.678;5.806;2023-04-10T07:38:55;11.30;99.90
62573;DHT22;48626;51.678;5.806;2023-04-10T07:41:21;11.40;99.90
62573;DHT22;48626;51.678;5.806;2023-04-10T07:43:47;11.50;99.90
62573;DHT22;48626;51.678;5.806;2023-04-10T07:46:13;11.50;99.90
62573;DHT22;48626;51.678;5.806;2023-04-10T07:48:38;11.60;99.90
62573;DHT22;48626;51.678;5.806;2023-04-10T07:51:04;11.60;99.90
62573;DHT22;48626;51.678;5.806;2023-04-10T07:53:36;11.70;99.90
62573;DHT22;48626;51.678;5.806;2023-04-10T07:56:02;11.80;99.90
62573;DHT22;48626;51.678;5.806;2023-04-10T07:58:28;11.80;99.90
62573;DHT22;48626;51.678;5.806;2023-04-10T08:00:53;11.90;99.90
62573;DHT22;48626;51.678;5.806;2023-04-10T08:03:19;12.00;99.90
62573;DHT22;48626;51.678;5.806;2023-04-10T08:05:45;12.10;99.90
62573;DHT22;48626;51.678;5.806;2023-04-10T08:08:10;12.30;99.90
62573;DHT22;48626;51.678;5.806;2023-04-10T08:10:37;12.40;99.90
62573;DHT22;48626;51.678;5.806;2023-04-10T08:13:04;12.50;99.90
62573;DHT22;48626;51.678;5.806;2023-04-10T08:15:29;12.70;99.90
62573;DHT22;48626;51.678;5.806;2023-04-10T08:17:55;12.90;99.90
62573;DHT22;48626;51.678;5.806;2023-04-10T08:20:21;13.00;99.90
62573;DHT22;48626;51.678;5.806;2023-04-10T08:22:47;13.20;99.90
62573;DHT22;48626;51.678;5.806;2023-04-10T08:25:12;13.40;99.90
62573;DHT22;48626;51.678;5.806;2023-04-10T08:27:38;13.60;99.90
62573;DHT22;48626;51.678;5.806;2023-04-10T08:30:04;13.70;99.90
62573;DHT22;48626;51.678;5.806;2023-04-10T08:32:30;13.70;99.90
62573;DHT22;48626;51.678;5.806;2023-04-10T08:34:56;13.80;99.90
62573;DHT22;48626;51.678;5.806;2023-04-10T08:37:21;13.80;99.90
62573;DHT22;48626;51.678;5.806;2023-04-10T08:39:47;13.80;99.90
62573;DHT22;48626;51.678;5.806;2023-04-10T08:42:13;14.00;99.90
62573;DHT22;48626;51.678;5.806;2023-04-10T08:44:38;14.10;99.90
62573;DHT22;48626;51.678;5.806;2023-04-10T08:47:07;14.10;99.90
62573;DHT22;48626;51.678;5.806;2023-04-10T08:52:21;14.20;99.90
62573;DHT22;48626;51.678;5.806;2023-04-10T08:54:54;14.20;99.90
62573;DHT22;48626;51.678;5.806;2023-04-10T08:57:20;14.40;99.90
62573;DHT22;48626;51.678;5.806;2023-04-10T08:59:48;14.40;99.90
62573;DHT22;48626;51.678;5.806;2023-04-10T09:02:13;14.60;99.90
62573;DHT22;48626;51.678;5.806;2023-04-10T09:04:46;14.70;99.90
62573;DHT22;48626;51.678;5.806;2023-04-10T09:07:12;14.80;99.90
62573;DHT22;48626;51.678;5.806;2023-04-10T09:09:38;14.80;99.90
62573;DHT22;48626;51.678;5.806;2023-04-10T09:12:05;14.90;99.90
62573;DHT22;48626;51.678;5.806;2023-04-10T09:14:32;14.90;99.90
62573;DHT22;48626;51.678;5.806;2023-04-10T09:17:13;14.90;99.90
62573;DHT22;48626;51.678;5.806;2023-04-10T09:19:39;14.90;99.90
62573;DHT22;48626;51.678;5.806;2023-04-10T09:22:05;14.90;99.90
62573;DHT22;48626;51.678;5.806;2023-04-10T09:24:35;15.00;99.90
62573;DHT22;48626;51.678;5.806;2023-04-10T09:27:01;15.10;99.90
62573;DHT22;48626;51.678;5.806;2023-04-10T09:29:43;15.20;99.90
62573;DHT22;48626;51.678;5.806;2023-04-10T09:32:11;15.30;99.90
62573;DHT22;48626;51.678;5.806;2023-04-10T09:34:53;15.30;99.90
62573;DHT22;48626;51.678;5.806;2023-04-10T09:37:19;15.40;99.90
62573;DHT22;48626;51.678;5.806;2023-04-10T09:39:47;15.40;99.90
62573;DHT22;48626;51.678;5.806;2023-04-10T09:42:12;15.60;99.90
62573;DHT22;48626;51.678;5.806;2023-04-10T09:44:40;15.50;99.90
62573;DHT22;48626;51.678;5.806;2023-04-10T09:47:16;15.50;99.90
62573;DHT22;48626;51.678;5.806;2023-04-10T09:49:53;15.60;99.90
62573;DHT22;48626;51.678;5.806;2023-04-10T09:54:51;15.50;99.90
62573;DHT22;48626;51.678;5.806;2023-04-10T09:57:19;15.50;99.90
62573;DHT22;48626;51.678;5.806;2023-04-10T09:59:51;15.60;99.90
62573;DHT22;48626;51.678;5.806;2023-04-10T10:02:22;15.50;99.90
62573;DHT22;48626;51.678;5.806;2023-04-10T10:04:49;15.60;99.90
62573;DHT22;48626;51.678;5.806;2023-04-10T10:07:20;15.60;99.90
62573;DHT22;48626;51.678;5.806;2023-04-10T10:09:47;15.70;99.90
62573;DHT22;48626;51.678;5.806;2023-04-10T10:12:21;15.80;99.90
62573;DHT22;48626;51.678;5.806;2023-04-10T10:15:57;15.90;99.90
62573;DHT22;48626;51.678;5.806;2023-04-10T10:18:09;16.00;99.90
62573;DHT22;48626;51.678;5.806;2023-04-10T10:20:38;16.00;99.90
62573;DHT22;48626;51.678;5.806;2023-04-10T10:23:06;16.20;99.90
62573;DHT22;48626;51.678;5.806;2023-04-10T10:25:34;16.30;99.90
62573;DHT22;48626;51.678;5.806;2023-04-10T10:28:03;16.60;99.90
62573;DHT22;48626;51.678;5.806;2023-04-10T10:30:32;16.80;99.90
62573;DHT22;48626;51.678;5.806;2023-04-10T10:33:00;16.80;99.90
62573;DHT22;48626;51.678;5.806;2023-04-10T10:35:27;16.70;99.90
62573;DHT22;48626;51.678;5.806;2023-04-10T10:37:56;16.70;99.90
62573;DHT22;48626;51.678;5.806;2023-04-10T10:40:34;16.80;99.90
62573;DHT22;48626;51.678;5.806;2023-04-10T10:48:30;17.00;99.90
62573;DHT22;48626;51.678;5.806;2023-04-10T10:50:58;17.10;99.90
62573;DHT22;48626;51.678;5.806;2023-04-10T10:53:34;17.30;99.90
62573;DHT22;48626;51.678;5.806;2023-04-10T10:58:51;17.60;99.90
62573;DHT22;48626;51.678;5.806;2023-04-10T11:01:19;17.50;99.90
62573;DHT22;48626;51.678;5.806;2023-04-10T11:03:46;17.50;99.90
62573;DHT22;48626;51.678;5.806;2023-04-10T11:06:15;17.60;99.90
62573;DHT22;48626;51.678;5.806;2023-04-10T11:08:51;17.50;99.90
62573;DHT22;48626;51.678;5.806;2023-04-10T11:11:22;17.60;99.90
62573;DHT22;48626;51.678;5.806;2023-04-10T11:16:40;18.00;99.90
62573;DHT22;48626;51.678;5.806;2023-04-10T11:19:08;18.20;99.90
62573;DHT22;48626;51.678;5.806;2023-04-10T11:22:00;18.50;99.90
62573;DHT22;48626;51.678;5.806;2023-04-10T11:24:26;18.70;99.90
62573;DHT22;48626;51.678;5.806;2023-04-10T11:26:52;19.20;99.90
62573;DHT22;48626;51.678;5.806;2023-04-10T11:29:38;19.50;99.90
62573;DHT22;48626;51.678;5.806;2023-04-10T11:32:04;19.60;99.90
62573;DHT22;48626;51.678;5.806;2023-04-10T11:34:30;19.70;99.90
62573;DHT22;48626;51.678;5.806;2023-04-10T11:36:58;19.60;99.90
62573;DHT22;48626;51.678;5.806;2023-04-10T11:39:25;19.70;99.90
62573;DHT22;48626;51.678;5.806;2023-04-10T11:41:53;19.70;99.90
62573;DHT22;48626;51.678;5.806;2023-04-10T11:44:33;19.70;99.90
62573;DHT22;48626;51.678;5.806;2023-04-10T11:47:03;19.60;99.90
62573;DHT22;48626;51.678;5.806;2023-04-10T11:49:31;19.60;99.90
62573;DHT22;48626;51.678;5.806;2023-04-10T11:51:57;19.80;99.90
62573;DHT22;48626;51.678;5.806;2023-04-10T11:54:25;20.10;99.90
62573;DHT22;48626;51.678;5.806;2023-04-10T11:57:07;20.20;99.90
62573;DHT22;48626;51.678;5.806;2023-04-10T11:59:38;20.30;99.90
62573;DHT22;48626;51.678;5.806;2023-04-10T12:02:12;20.10;99.90
62573;DHT22;48626;51.678;5.806;2023-04-10T12:04:39;20.00;99.90
62573;DHT22;48626;51.678;5.806;2023-04-10T12:07:06;19.70;99.90
62573;DHT22;48626;51.678;5.806;2023-04-10T12:09:31;19.50;99.90
62573;DHT22;48626;51.678;5.806;2023-04-10T12:12:02;19.50;99.90
62573;DHT22;48626;51.678;5.806;2023-04-10T12:14:33;19.30;99.90
62573;DHT22;48626;51.678;5.806;2023-04-10T12:17:04;19.20;99.90
62573;DHT22;48626;51.678;5.806;2023-04-10T12:19:30;19.10;99.90
62573;DHT22;48626;51.678;5.806;2023-04-10T12:21:58;19.00;99.90
62573;DHT22;48626;51.678;5.806;2023-04-10T12:24:49;19.10;99.90
62573;DHT22;48626;51.678;5.806;2023-04-10T12:27:23;19.00;99.90
62573;DHT22;48626;51.678;5.806;2023-04-10T12:29:57;18.90;99.90
62573;DHT22;48626;51.678;5.806;2023-04-10T12:32:24;19.00;99.90
62573;DHT22;48626;51.678;5.806;2023-04-10T12:34:57;19.10;99.90
62573;DHT22;48626;51.678;5.806;2023-04-10T12:37:24;19.20;99.90
62573;DHT22;48626;51.678;5.806;2023-04-10T12:39:50;19.20;99.90
62573;DHT22;48626;51.678;5.806;2023-04-10T12:42:24;19.20;99.90
62573;DHT22;48626;51.678;5.806;2023-04-10T12:44:55;19.20;99.90
62573;DHT22;48626;51.678;5.806;2023-04-10T12:47:22;19.30;99.90
62573;DHT22;48626;51.678;5.806;2023-04-10T12:52:29;19.70;99.90
62573;DHT22;48626;51.678;5.806;2023-04-10T12:55:07;19.70;99.90
62573;DHT22;48626;51.678;5.806;2023-04-10T12:57:33;19.70;99.90
62573;DHT22;48626;51.678;5.806;2023-04-10T12:59:59;19.50;99.90
62573;DHT22;48626;51.678;5.806;2023-04-10T13:02:27;19.40;99.90
62573;DHT22;48626;51.678;5.806;2023-04-10T13:04:53;19.20;99.90
62573;DHT22;48626;51.678;5.806;2023-04-10T13:07:19;19.20;99.90
62573;DHT22;48626;51.678;5.806;2023-04-10T13:09:45;19.10;99.90
62573;DHT22;48626;51.678;5.806;2023-04-10T13:12:11;19.10;99.90
62573;DHT22;48626;51.678;5.806;2023-04-10T13:14:37;19.10;99.90
62573;DHT22;48626;51.678;5.806;2023-04-10T13:17:03;18.90;99.90
62573;DHT22;48626;51.678;5.806;2023-04-10T13:19:28;18.80;99.90
62573;DHT22;48626;51.678;5.806;2023-04-10T13:21:54;18.80;99.90
62573;DHT22;48626;51.678;5.806;2023-04-10T13:24:20;18.80;99.90
62573;DHT22;48626;51.678;5.806;2023-04-10T13:26:46;18.60;99.90
62573;DHT22;48626;51.678;5.806;2023-04-10T13:29:12;18.50;99.90
62573;DHT22;48626;51.678;5.806;2023-04-10T13:31:37;18.50;99.90
62573;DHT22;48626;51.678;5.806;2023-04-10T13:34:03;18.40;99.90
62573;DHT22;48626;51.678;5.806;2023-04-10T13:36:29;18.40;99.90
62573;DHT22;48626;51.678;5.806;2023-04-10T13:38:55;18.30;99.90
62573;DHT22;48626;51.678;5.806;2023-04-10T13:41:21;18.20;99.90
62573;DHT22;48626;51.678;5.806;2023-04-10T13:43:48;18.20;99.90
62573;DHT22;48626;51.678;5.806;2023-04-10T13:46:13;18.10;99.90
62573;DHT22;48626;51.678;5.806;2023-04-10T13:48:39;18.10;99.90
62573;DHT22;48626;51.678;5.806;2023-04-10T13:51:06;18.10;99.90
62573;DHT22;48626;51.678;5.806;2023-04-10T13:53:32;18.20;99.90
62573;DHT22;48626;51.678;5.806;2023-04-10T13:55:58;18.30;99.90
62573;DHT22;48626;51.678;5.806;2023-04-10T13:58:24;18.30;99.90
62573;DHT22;48626;51.678;5.806;2023-04-10T14:00:51;18.20;99.90
62573;DHT22;48626;51.678;5.806;2023-04-10T14:03:16;18.10;99.90
62573;DHT22;48626;51.678;5.806;2023-04-10T14:05:42;18.10;99.90
62573;DHT22;48626;51.678;5.806;2023-04-10T14:08:09;18.20;99.90
62573;DHT22;48626;51.678;5.806;2023-04-10T14:10:36;18.20;99.90
62573;DHT22;48626;51.678;5.806;2023-04-10T14:13:04;18.30;99.90
62573;DHT22;48626;51.678;5.806;2023-04-10T14:15:31;18.50;99.90
62573;DHT22;48626;51.678;5.806;2023-04-10T14:17:56;18.70;99.90
62573;DHT22;48626;51.678;5.806;2023-04-10T14:20:22;19.00;99.90
62573;DHT22;48626;51.678;5.806;2023-04-10T14:22:48;19.30;99.90
62573;DHT22;48626;51.678;5.806;2023-04-10T14:25:13;19.40;99.90
62573;DHT22;48626;51.678;5.806;2023-04-10T14:27:42;19.40;99.90
62573;DHT22;48626;51.678;5.806;2023-04-10T14:30:09;19.30;99.90
62573;DHT22;48626;51.678;5.806;2023-04-10T14:32:35;19.10;99.90
62573;DHT22;48626;51.678;5.806;2023-04-10T14:35:00;19.00;99.90
62573;DHT22;48626;51.678;5.806;2023-04-10T14:37:26;18.80;99.90
62573;DHT22;48626;51.678;5.806;2023-04-10T14:39:52;18.70;99.90
62573;DHT22;48626;51.678;5.806;2023-04-10T14:42:17;18.70;99.90
62573;DHT22;48626;51.678;5.806;2023-04-10T14:44:43;18.60;99.90
62573;DHT22;48626;51.678;5.806;2023-04-10T14:47:09;18.50;99.90
62573;DHT22;48626;51.678;5.806;2023-04-10T14:49:35;18.40;99.90
62573;DHT22;48626;51.678;5.806;2023-04-10T14:52:01;18.30;99.90
62573;DHT22;48626;51.678;5.806;2023-04-10T14:54:26;18.20;99.90
62573;DHT22;48626;51.678;5.806;2023-04-10T14:56:52;18.10;99.90
62573;DHT22;48626;51.678;5.806;2023-04-10T14:59:17;18.00;99.90
62573;DHT22;48626;51.678;5.806;2023-04-10T15:01:43;17.80;99.90
62573;DHT22;48626;51.678;5.806;2023-04-10T15:04:09;17.80;99.90
62573;DHT22;48626;51.678;5.806;2023-04-10T15:06:36;17.60;99.90
62573;DHT22;48626;51.678;5.806;2023-04-10T15:09:02;17.20;99.90
62573;DHT22;48626;51.678;5.806;2023-04-10T15:11:28;16.90;99.90
62573;DHT22;48626;51.678;5.806;2023-04-10T15:13:53;16.80;99.90
62573;DHT22;48626;51.678;5.806;2023-04-10T15:16:19;16.70;99.90
62573;DHT22;48626;51.678;5.806;2023-04-10T15:18:48;16.60;99.90
62573;DHT22;48626;51.678;5.806;2023-04-10T15:21:14;16.40;99.90
62573;DHT22;48626;51.678;5.806;2023-04-10T15:23:40;16.30;99.90
62573;DHT22;48626;51.678;5.806;2023-04-10T15:26:12;16.20;99.90
62573;DHT22;48626;51.678;5.806;2023-04-10T15:28:39;16.20;99.90
62573;DHT22;48626;51.678;5.806;2023-04-10T15:31:05;16.20;99.90
62573;DHT22;48626;51.678;5.806;2023-04-10T15:33:31;16.00;99.90
62573;DHT22;48626;51.678;5.806;2023-04-10T15:35:57;16.00;99.90
62573;DHT22;48626;51.678;5.806;2023-04-10T15:38:23;15.90;99.90
62573;DHT22;48626;51.678;5.806;2023-04-10T15:40:50;15.80;99.90
62573;DHT22;48626;51.678;5.806;2023-04-10T15:43:16;15.80;99.90
62573;DHT22;48626;51.678;5.806;2023-04-10T15:45:42;15.80;99.90
62573;DHT22;48626;51.678;5.806;2023-04-10T15:48:08;15.80;99.90
62573;DHT22;48626;51.678;5.806;2023-04-10T15:50:36;15.80;99.90
62573;DHT22;48626;51.678;5.806;2023-04-10T15:53:01;15.70;99.90
62573;DHT22;48626;51.678;5.806;2023-04-10T15:55:27;15.50;99.90
62573;DHT22;48626;51.678;5.806;2023-04-10T15:57:53;15.30;99.90
62573;DHT22;48626;51.678;5.806;2023-04-10T16:00:19;15.30;99.90
62573;DHT22;48626;51.678;5.806;2023-04-10T16:02:45;15.40;99.90
62573;DHT22;48626;51.678;5.806;2023-04-10T16:05:10;15.50;99.90
62573;DHT22;48626;51.678;5.806;2023-04-10T16:07:36;15.60;99.90